• Join FlightAware (Why Join?)
  • Login
  • US Flag 
03:31AM EDT


 

Airport Tracker/Info


-or-


 

Live Flight TrackerFlight Track Log ✈ N877PM ✈ 18-Jul-2013 ✈ KTEB - KILM

Flight Track Log - Related Links

Times and Time Zones

All times are in EDT time to prevent confusion due to time zone crossing. See the N877PM flight status page for this flight to view local times or setup timezone preferences in your user account.

Time Position Orientation Groundspeed Altitude Reporting Facility
EDT Latitude Longitude Course Direction KTS MPH feet Rate Location/Type
04:21PM 40.8333 -74.0833 237° Southwest 118 136 1,200  Level New York TRACON
04:22PM 40.8167 -74.1167 237° Southwest 153 176 1,600 1,020 Climbing New York TRACON
04:23PM 40.8000 -74.1833 252° West 149 171 3,300 1,560 Climbing New York TRACON
04:24PM 40.7667 -74.2000 201° Southwest 142 163 4,800 1,560 Climbing New York TRACON
04:25PM 40.7333 -74.2167 201° Southwest 124 143 6,500 1,500 Climbing New York TRACON
04:26PM 40.7000 -74.2167 180° South 121 139 7,900 1,320 Climbing New York TRACON
04:29PM 40.5967 -74.2818 180° South  Level Estimated
04:29PM 40.5703 -74.2681 180° South 152 175 12,400  Level New York Center
04:30PM 40.5178 -74.2844 193° South 171 197 13,000 300 Climbing New York Center
04:31PM 40.4486 -74.2972 188° South 229 264 13,100  Climbing New York Center
04:32PM 40.3897 -74.2425 145° Southeast 250 288 13,100  Level New York Center
04:33PM 40.3125 -74.1733 146° Southeast 288 331 13,100 -60 Level New York Center
04:34PM 40.2394 -74.1833 186° South 284 327 13,000 -60 Descending New York Center
04:35PM 40.1572 -74.2092 194° South 296 341 13,000  Level New York Center
04:36PM 40.0669 -74.2372 193° South 302 348 13,000  Level New York Center
04:37PM 39.9886 -74.2739 200° South 302 348 13,000 180 Level New York Center
04:38PM 39.9222 -74.3328 214° Southwest 302 348 13,400 540 Climbing New York Center
04:39PM 39.8594 -74.3914 216° Southwest 293 337 14,100 1,260 Climbing Washington Center
04:40PM 39.8058 -74.4436 217° Southwest 271 312 15,900 1,560 Climbing Washington Center
04:41PM 39.7647 -74.5036 228° Southwest 246 283 17,200 1,380 Climbing Washington Center
04:42PM 39.7217 -74.5583 224° Southwest 229 264 18,700 1,440 Climbing Washington Center
04:43PM 39.6844 -74.6100 227° Southwest 214 246 20,200 1,320 Climbing Washington Center
04:44PM 39.6453 -74.6592 224° Southwest 203 234 21,400 1,200 Climbing Washington Center
04:45PM 39.6061 -74.7081 224° Southwest 198 228 22,600 1,140 Climbing Washington Center
04:46PM 39.5689 -74.7597 227° Southwest 198 228 23,800 1,200 Climbing Washington Center
04:47PM 39.5297 -74.8139 227° Southwest 198 228 25,000 960 Climbing Washington Center
04:48PM 39.4986 -74.8547 225° Southwest 198 228 25,800 900 Climbing Washington Center
04:49PM 39.4533 -74.9117 224° Southwest 198 228 26,900 1,080 Climbing Washington Center
04:50PM 39.4119 -74.9658 225° Southwest 198 228 28,000 1,020 Climbing Washington Center
04:51PM 39.3706 -75.0197 225° Southwest 203 234 29,000 900 Climbing Washington Center
04:52PM 39.3289 -75.0764 226° Southwest 208 239 29,900 900 Climbing Washington Center
04:53PM 39.2814 -75.1222 217° Southwest 214 246 30,800 900 Climbing Washington Center
04:54PM 39.2250 -75.1494 201° Southwest 214 246 31,700 840 Climbing Washington Center
04:55PM 39.1669 -75.1714 196° South 219 252 32,600 780 Climbing Washington Center
04:56PM 39.1064 -75.1958 197° South 225 259 33,300 720 Climbing Washington Center
04:57PM 39.0503 -75.2175 197° South 225 259 34,100 720 Climbing Washington Center
04:58PM 38.9900 -75.2444 199° South 225 259 34,800 600 Climbing Washington Center
04:59PM 38.9294 -75.2686 197° South 225 259 35,400 540 Climbing Washington Center
05:00PM 38.8753 -75.3036 207° Southwest 225 259 36,000 240 Climbing Washington Center
05:01PM 38.8006 -75.3492 205° Southwest 241 277 36,000  Level Washington Center
05:02PM 38.7297 -75.3919 205° Southwest 264 304 36,000  Level Washington Center
05:03PM 38.6547 -75.4347 204° Southwest 285 328 36,000  Level Washington Center
05:04PM 38.5756 -75.4856 207° Southwest 301 346 36,000  Level Washington Center
05:05PM 38.4922 -75.5306 203° Southwest 313 360 36,000  Level Washington Center
05:06PM 38.4108 -75.5811 206° Southwest 323 372 36,000  Level Washington Center
05:07PM 38.3294 -75.6342 207° Southwest 328 377 36,000  Level Washington Center
05:08PM 38.2336 -75.6869 203° Southwest 328 377 36,000  Level Washington Center
05:09PM 38.1458 -75.7369 204° Southwest 339 390 36,000  Level Washington Center
05:10PM 38.0603 -75.7894 206° Southwest 339 390 36,000  Level Washington Center
05:11PM 37.9769 -75.8419 206° Southwest 339 390 36,000  Level Washington Center
05:12PM 37.8975 -75.8892 205° Southwest 353 406 36,000  Level Washington Center
05:13PM 37.8119 -75.9389 205° Southwest 353 406 36,000  Level Washington Center
05:14PM 37.7200 -75.9986 207° Southwest 347 399 36,000  Level Washington Center
05:15PM 37.6342 -76.0481 205° Southwest 341 392 36,000  Level Washington Center
05:16PM 37.5506 -76.0975 205° Southwest 341 392 36,000  Level Washington Center
05:17PM 37.4628 -76.1492 205° Southwest 347 399 36,000  Level Washington Center
05:18PM 37.3811 -76.1878 201° Southwest 347 399 36,000  Level Washington Center
05:19PM 37.2956 -76.2392 206° Southwest 342 394 36,000  Level Washington Center
05:20PM 37.2075 -76.2908 205° Southwest 342 394 36,000  Level Washington Center
05:21PM 37.1217 -76.3394 204° Southwest 342 394 36,000  Level Washington Center
05:22PM 37.0339 -76.3881 204° Southwest 342 394 36,000  Level Washington Center
05:23PM 36.9481 -76.4367 204° Southwest 342 394 36,000  Level Washington Center
05:24PM 36.8600 -76.4875 205° Southwest 342 394 36,000  Level Washington Center
05:25PM 36.7742 -76.5383 205° Southwest 342 394 36,000  Level Washington Center
05:26PM 36.6858 -76.5942 207° Southwest 342 394 36,000  Level Washington Center
05:27PM 36.6000 -76.6422 204° Southwest 342 394 36,000  Level Washington Center
05:28PM 36.5119 -76.6903 204° Southwest 342 394 36,000  Level Washington Center
05:29PM 36.4258 -76.7406 205° Southwest 342 394 36,000 -660 Level Washington Center
05:30PM 36.3336 -76.7883 203° Southwest 342 394 34,800 -1,020 Descending Washington Center
05:31PM 36.2414 -76.8411 205° Southwest 352 405 34,000 -420 Descending Washington Center
05:32PM 36.1489 -76.8911 204° Southwest 363 418 34,000  Level Washington Center
05:33PM 36.0628 -76.9411 205° Southwest 363 418 34,000  Level Washington Center
05:34PM 35.9728 -76.9883 203° Southwest 358 412 34,000  Level Washington Center
05:35PM 35.8864 -77.0406 206° Southwest 358 412 34,000 -720 Level Washington Center
05:36PM 35.7961 -77.0850 202° Southwest 353 406 32,600 -2,040 Descending Washington Center
05:37PM 35.6994 -77.1447 207° Southwest 353 406 30,100 -2,340 Descending Washington Center
05:38PM 35.6050 -77.1964 204° Southwest 365 420 28,100 -2,040 Descending Washington Center
05:39PM 35.5103 -77.2481 204° Southwest 365 420 26,000 -2,160 Descending Washington Center
05:40PM 35.4200 -77.2972 204° Southwest 360 414 23,800 -2,040 Descending Washington Center
05:41PM 35.3317 -77.3436 203° Southwest 360 414 22,000 -1,980 Descending Washington Center
05:42PM 35.2475 -77.3928 206° Southwest 354 407 19,900 -2,100 Descending Washington Center
05:43PM 35.1633 -77.4392 204° Southwest 343 395 17,900 -2,100 Descending Washington Center
05:44PM 35.0811 -77.4831 204° Southwest 338 389 15,700 -2,040 Descending Washington Center
05:45PM 35.0011 -77.5267 204° Southwest 333 383 13,800 -1,920 Descending Washington Center
05:46PM 34.9275 -77.5681 205° Southwest 315 362 12,000 -1,800 Descending Washington Center
05:47PM 34.8517 -77.6067 203° Southwest 303 349 10,300 -1,620 Descending Washington Center
05:48PM 34.7844 -77.6456 205° Southwest 298 343 8,800 -1,140 Descending Washington Center
05:49PM 34.7128 -77.6842 204° Southwest 298 343 8,000 -600 Descending Washington Center
05:50PM 34.6411 -77.7225 204° Southwest 292 336 7,700 -1,200 Descending Washington Center
05:51PM 34.5758 -77.7589 205° Southwest 279 321 5,700 -1,740 Descending Washington Center
05:52PM 34.5147 -77.7900 203° Southwest 265 305 4,200 -1,380 Descending Washington Center
05:53PM 34.4600 -77.8211 205° Southwest 241 277 3,000 -1,200 Descending Washington Center
05:55PM 34.3615 -77.8388 198° South  Level FlightAware Approximate